IBE05YT LEBL-LEMD
Flight info
| Callsign | IBE05YT |
|---|---|
| Flight time | 0h 55m |
| Altitude | 28000 |
| Route | SENIA Z596 CRETA/N0418F290 Z596 NEXAS N975 ADUXO |
| Aircraft | A320/M-SDE3FGHIRWY/LB1 |
Departure
| Time | 2026-05-06 12:59 |
|---|---|
| Airport | Josep Tarradellas Barcelona-El Prat Airport (LEBL) |
Arrival
| Time | 2026-05-06 13:54 |
|---|---|
| Airport | Adolfo Suárez Madrid–Barajas Airport (LEMD) |
| Time | Latitude | Longitude | Altitude | Speed | Heading |
|---|---|---|---|---|---|
| 2026-05-06 12:28 | 41.28989 | 2.06906 | 18 ft | 0 kts | 156° |
| 2026-05-06 12:49 | 41.28995 | 2.06903 | 18 ft | 4 kts | 156° |
| 2026-05-06 12:49 | 41.29019 | 2.06888 | 20 ft | 4 kts | 146° |
| 2026-05-06 12:49 | 41.29036 | 2.06865 | 20 ft | 4 kts | 99° |
| 2026-05-06 12:49 | 41.29035 | 2.06851 | 19 ft | 0 kts | 57° |
| 2026-05-06 12:51 | 41.29037 | 2.06854 | 19 ft | 1 kts | 57° |
| 2026-05-06 12:52 | 41.29056 | 2.06888 | 18 ft | 8 kts | 45° |
| 2026-05-06 12:52 | 41.29108 | 2.06896 | 18 ft | 7 kts | 4° |
| 2026-05-06 12:52 | 41.29150 | 2.06968 | 18 ft | 13 kts | 65° |
| 2026-05-06 12:52 | 41.29192 | 2.07097 | 18 ft | 17 kts | 66° |
| 2026-05-06 12:53 | 41.29247 | 2.07255 | 18 ft | 21 kts | 65° |
| 2026-05-06 12:53 | 41.29311 | 2.07442 | 20 ft | 24 kts | 66° |
| 2026-05-06 12:53 | 41.29375 | 2.07657 | 18 ft | 27 kts | 66° |
| 2026-05-06 12:53 | 41.29456 | 2.07892 | 18 ft | 29 kts | 65° |
| 2026-05-06 12:54 | 41.29539 | 2.08138 | 20 ft | 16 kts | 65° |
| 2026-05-06 12:54 | 41.29544 | 2.08276 | 18 ft | 17 kts | 147° |
| 2026-05-06 12:54 | 41.29430 | 2.08338 | 18 ft | 19 kts | 155° |
| 2026-05-06 12:54 | 41.29302 | 2.08415 | 20 ft | 22 kts | 156° |
| 2026-05-06 12:55 | 41.29160 | 2.08505 | 19 ft | 24 kts | 156° |
| 2026-05-06 12:55 | 41.29000 | 2.08601 | 17 ft | 26 kts | 155° |
| 2026-05-06 12:55 | 41.28865 | 2.08698 | 18 ft | 18 kts | 114° |
| 2026-05-06 12:55 | 41.28908 | 2.08860 | 20 ft | 20 kts | 66° |
| 2026-05-06 12:56 | 41.28971 | 2.09046 | 19 ft | 24 kts | 66° |
| 2026-05-06 12:56 | 41.29041 | 2.09256 | 19 ft | 27 kts | 65° |
| 2026-05-06 12:56 | 41.29122 | 2.09490 | 18 ft | 29 kts | 64° |
| 2026-05-06 12:56 | 41.29209 | 2.09746 | 20 ft | 32 kts | 65° |
| 2026-05-06 12:57 | 41.29282 | 2.09981 | 18 ft | 18 kts | 89° |
| 2026-05-06 12:57 | 41.29244 | 2.10124 | 17 ft | 16 kts | 111° |
| 2026-05-06 12:57 | 41.29183 | 2.10204 | 14 ft | 12 kts | 205° |
| 2026-05-06 12:57 | 41.29161 | 2.10147 | 14 ft | 0 kts | 243° |
| 2026-05-06 12:58 | 41.29150 | 2.10117 | 14 ft | 26 kts | 244° |
| 2026-05-06 12:58 | 41.28962 | 2.09568 | 17 ft | 100 kts | 245° |
| 2026-05-06 12:58 | 41.28580 | 2.08490 | 35 ft | 154 kts | 240° |
| 2026-05-06 12:58 | 41.28270 | 2.07612 | 361 ft | 161 kts | 242° |
| 2026-05-06 12:59 | 41.27707 | 2.06314 | 1067 ft | 162 kts | 220° |
| 2026-05-06 12:59 | 41.26660 | 2.05877 | 1810 ft | 166 kts | 180° |
| 2026-05-06 12:59 | 41.25442 | 2.05897 | 2227 ft | 186 kts | 182° |
| 2026-05-06 12:59 | 41.24074 | 2.05879 | 2555 ft | 208 kts | 183° |
| 2026-05-06 13:00 | 41.22568 | 2.05840 | 3067 ft | 222 kts | 184° |
| 2026-05-06 13:00 | 41.21019 | 2.05793 | 3928 ft | 223 kts | 184° |
| 2026-05-06 13:00 | 41.19469 | 2.05743 | 4856 ft | 222 kts | 184° |
| 2026-05-06 13:00 | 41.17925 | 2.05640 | 5709 ft | 222 kts | 194° |
| 2026-05-06 13:01 | 41.16456 | 2.04933 | 6349 ft | 232 kts | 210° |
| 2026-05-06 13:01 | 41.14997 | 2.03933 | 7072 ft | 239 kts | 210° |
| 2026-05-06 13:01 | 41.13508 | 2.02913 | 7905 ft | 243 kts | 210° |
| 2026-05-06 13:01 | 41.12007 | 2.01886 | 8766 ft | 248 kts | 210° |
| 2026-05-06 13:02 | 41.10445 | 2.00814 | 9649 ft | 252 kts | 210° |
| 2026-05-06 13:02 | 41.08891 | 1.99707 | 10459 ft | 255 kts | 216° |
| 2026-05-06 13:02 | 41.07589 | 1.98169 | 11250 ft | 255 kts | 233° |
| 2026-05-06 13:02 | 41.06662 | 1.96110 | 11725 ft | 272 kts | 250° |
| 2026-05-06 13:03 | 41.06121 | 1.93603 | 12035 ft | 295 kts | 256° |
| 2026-05-06 13:03 | 41.05579 | 1.90875 | 12326 ft | 317 kts | 256° |
| 2026-05-06 13:03 | 41.05282 | 1.87942 | 12916 ft | 326 kts | 270° |
| 2026-05-06 13:03 | 41.05314 | 1.84918 | 13678 ft | 331 kts | 271° |
| 2026-05-06 13:04 | 41.05343 | 1.81859 | 14409 ft | 333 kts | 270° |
| 2026-05-06 13:04 | 41.05366 | 1.78786 | 15184 ft | 334 kts | 270° |
| 2026-05-06 13:04 | 41.05388 | 1.75704 | 15974 ft | 335 kts | 269° |
| 2026-05-06 13:04 | 41.05408 | 1.72620 | 16759 ft | 335 kts | 269° |
| 2026-05-06 13:05 | 41.05426 | 1.69526 | 17547 ft | 336 kts | 268° |
| 2026-05-06 13:05 | 41.05445 | 1.66425 | 18305 ft | 337 kts | 268° |
| 2026-05-06 13:05 | 41.05465 | 1.63309 | 18940 ft | 339 kts | 268° |
| 2026-05-06 13:05 | 41.05481 | 1.60178 | 19558 ft | 341 kts | 268° |
| 2026-05-06 13:06 | 41.05498 | 1.57024 | 20168 ft | 343 kts | 268° |
| 2026-05-06 13:06 | 41.05496 | 1.53855 | 20773 ft | 345 kts | 264° |
| 2026-05-06 13:06 | 41.05135 | 1.50723 | 21346 ft | 345 kts | 254° |
| 2026-05-06 13:06 | 41.04431 | 1.47674 | 21944 ft | 347 kts | 252° |
| 2026-05-06 13:07 | 41.03708 | 1.44618 | 22554 ft | 348 kts | 252° |
| 2026-05-06 13:07 | 41.02991 | 1.41584 | 23149 ft | 350 kts | 252° |
| 2026-05-06 13:07 | 41.02264 | 1.38494 | 23700 ft | 352 kts | 252° |
| 2026-05-06 13:07 | 41.01533 | 1.35385 | 24177 ft | 354 kts | 252° |
| 2026-05-06 13:08 | 41.00800 | 1.32263 | 24655 ft | 356 kts | 252° |
| 2026-05-06 13:08 | 41.00063 | 1.29123 | 25125 ft | 358 kts | 252° |
| 2026-05-06 13:08 | 40.99325 | 1.25973 | 25582 ft | 360 kts | 252° |
| 2026-05-06 13:08 | 40.98576 | 1.22796 | 26031 ft | 361 kts | 251° |
| 2026-05-06 13:09 | 40.97821 | 1.19614 | 26465 ft | 363 kts | 251° |
| 2026-05-06 13:09 | 40.97060 | 1.16416 | 26889 ft | 365 kts | 251° |
| 2026-05-06 13:09 | 40.96295 | 1.13200 | 27308 ft | 368 kts | 251° |
| 2026-05-06 13:09 | 40.95524 | 1.09958 | 27700 ft | 370 kts | 251° |
| 2026-05-06 13:10 | 40.94749 | 1.06699 | 27916 ft | 372 kts | 252° |
| 2026-05-06 13:10 | 40.93992 | 1.03508 | 27944 ft | 356 kts | 251° |
| 2026-05-06 13:10 | 40.93255 | 1.00420 | 27946 ft | 349 kts | 251° |
| 2026-05-06 13:10 | 40.92534 | 0.97409 | 27946 ft | 347 kts | 251° |
| 2026-05-06 13:11 | 40.91808 | 0.94373 | 27946 ft | 346 kts | 251° |
| 2026-05-06 13:11 | 40.91082 | 0.91349 | 27947 ft | 346 kts | 251° |
| 2026-05-06 13:11 | 40.90352 | 0.88318 | 27937 ft | 346 kts | 251° |
| 2026-05-06 13:11 | 40.89625 | 0.85295 | 27946 ft | 345 kts | 251° |
| 2026-05-06 13:12 | 40.88897 | 0.82270 | 27945 ft | 345 kts | 251° |
| 2026-05-06 13:12 | 40.88168 | 0.79246 | 27945 ft | 345 kts | 251° |
| 2026-05-06 13:12 | 40.87441 | 0.76222 | 27943 ft | 345 kts | 252° |
| 2026-05-06 13:12 | 40.86958 | 0.73104 | 27936 ft | 347 kts | 262° |
| 2026-05-06 13:13 | 40.86907 | 0.69933 | 27935 ft | 349 kts | 268° |
| 2026-05-06 13:13 | 40.86939 | 0.66685 | 27931 ft | 350 kts | 268° |
| 2026-05-06 13:13 | 40.86962 | 0.63505 | 27937 ft | 350 kts | 267° |
| 2026-05-06 13:13 | 40.86980 | 0.60272 | 27933 ft | 350 kts | 267° |
| 2026-05-06 13:14 | 40.86999 | 0.57054 | 27934 ft | 350 kts | 267° |
| 2026-05-06 13:14 | 40.87017 | 0.53832 | 27936 ft | 351 kts | 267° |
| 2026-05-06 13:14 | 40.87036 | 0.50633 | 27946 ft | 351 kts | 267° |
| 2026-05-06 13:14 | 40.87055 | 0.47393 | 27941 ft | 350 kts | 267° |
| 2026-05-06 13:15 | 40.87075 | 0.44196 | 27945 ft | 350 kts | 267° |
| 2026-05-06 13:15 | 40.87094 | 0.40973 | 27940 ft | 350 kts | 267° |
| 2026-05-06 13:15 | 40.87112 | 0.37754 | 27959 ft | 351 kts | 267° |
| 2026-05-06 13:15 | 40.87129 | 0.34534 | 27953 ft | 351 kts | 268° |
| 2026-05-06 13:16 | 40.87146 | 0.31312 | 27948 ft | 351 kts | 268° |
| 2026-05-06 13:16 | 40.87162 | 0.28089 | 27949 ft | 351 kts | 267° |
| 2026-05-06 13:16 | 40.87175 | 0.24865 | 27945 ft | 350 kts | 267° |
| 2026-05-06 13:16 | 40.87186 | 0.21643 | 27946 ft | 351 kts | 267° |
| 2026-05-06 13:17 | 40.87197 | 0.18433 | 27948 ft | 351 kts | 267° |
| 2026-05-06 13:17 | 40.87205 | 0.15269 | 27956 ft | 351 kts | 267° |
| 2026-05-06 13:17 | 40.87209 | 0.12047 | 27950 ft | 351 kts | 267° |
| 2026-05-06 13:17 | 40.87213 | 0.08819 | 27952 ft | 351 kts | 267° |
| 2026-05-06 13:18 | 40.87221 | 0.05585 | 27950 ft | 351 kts | 267° |
| 2026-05-06 13:18 | 40.87231 | 0.02360 | 27953 ft | 351 kts | 267° |
| 2026-05-06 13:18 | 40.87238 | -0.00821 | 27968 ft | 351 kts | 268° |
| 2026-05-06 13:18 | 40.87243 | -0.04087 | 27953 ft | 352 kts | 268° |
| 2026-05-06 13:19 | 40.87250 | -0.07322 | 27952 ft | 352 kts | 268° |
| 2026-05-06 13:19 | 40.87255 | -0.10556 | 27951 ft | 352 kts | 268° |
| 2026-05-06 13:19 | 40.87258 | -0.13738 | 27952 ft | 352 kts | 268° |
| 2026-05-06 13:19 | 40.87257 | -0.16975 | 27953 ft | 352 kts | 268° |
| 2026-05-06 13:20 | 40.87256 | -0.20216 | 27953 ft | 352 kts | 268° |
| 2026-05-06 13:20 | 40.87257 | -0.23449 | 27953 ft | 352 kts | 268° |
| 2026-05-06 13:20 | 40.87260 | -0.26674 | 27953 ft | 352 kts | 268° |
| 2026-05-06 13:20 | 40.87259 | -0.29912 | 27953 ft | 352 kts | 268° |
| 2026-05-06 13:21 | 40.87256 | -0.33154 | 27949 ft | 352 kts | 268° |
| 2026-05-06 13:21 | 40.87253 | -0.36386 | 27950 ft | 352 kts | 267° |
| 2026-05-06 13:21 | 40.87247 | -0.39621 | 27951 ft | 352 kts | 267° |
| 2026-05-06 13:21 | 40.87239 | -0.42861 | 27949 ft | 352 kts | 267° |
| 2026-05-06 13:22 | 40.87230 | -0.46094 | 27952 ft | 352 kts | 268° |
| 2026-05-06 13:22 | 40.87221 | -0.49332 | 27952 ft | 352 kts | 267° |
| 2026-05-06 13:22 | 40.87211 | -0.52557 | 27952 ft | 352 kts | 267° |
| 2026-05-06 13:22 | 40.87203 | -0.55788 | 27949 ft | 352 kts | 267° |
| 2026-05-06 13:23 | 40.87193 | -0.58975 | 27945 ft | 352 kts | 267° |
| 2026-05-06 13:23 | 40.87181 | -0.62207 | 27941 ft | 352 kts | 267° |
| 2026-05-06 13:23 | 40.87169 | -0.65443 | 27942 ft | 351 kts | 267° |
| 2026-05-06 13:23 | 40.87154 | -0.68672 | 27943 ft | 352 kts | 267° |
| 2026-05-06 13:24 | 40.87141 | -0.71901 | 27945 ft | 352 kts | 267° |
| 2026-05-06 13:24 | 40.87129 | -0.75127 | 27947 ft | 352 kts | 267° |
| 2026-05-06 13:24 | 40.87031 | -0.78349 | 27958 ft | 350 kts | 261° |
| 2026-05-06 13:24 | 40.86503 | -0.81483 | 27953 ft | 350 kts | 251° |
| 2026-05-06 13:25 | 40.85669 | -0.84496 | 27944 ft | 350 kts | 250° |
| 2026-05-06 13:25 | 40.84836 | -0.87483 | 27943 ft | 350 kts | 250° |
| 2026-05-06 13:25 | 40.83999 | -0.90506 | 27942 ft | 350 kts | 250° |
| 2026-05-06 13:25 | 40.83165 | -0.93518 | 27947 ft | 350 kts | 251° |
| 2026-05-06 13:26 | 40.82332 | -0.96531 | 27947 ft | 350 kts | 250° |
| 2026-05-06 13:26 | 40.81498 | -0.99551 | 27947 ft | 350 kts | 250° |
| 2026-05-06 13:26 | 40.80664 | -1.02551 | 27946 ft | 351 kts | 250° |
| 2026-05-06 13:26 | 40.79837 | -1.05532 | 27949 ft | 351 kts | 250° |
| 2026-05-06 13:27 | 40.78998 | -1.08550 | 27951 ft | 351 kts | 250° |
| 2026-05-06 13:27 | 40.78154 | -1.11571 | 27952 ft | 350 kts | 250° |
| 2026-05-06 13:27 | 40.77313 | -1.14585 | 27952 ft | 350 kts | 250° |
| 2026-05-06 13:27 | 40.76470 | -1.17607 | 27952 ft | 351 kts | 250° |
| 2026-05-06 13:28 | 40.75628 | -1.20626 | 27956 ft | 351 kts | 250° |
| 2026-05-06 13:28 | 40.74780 | -1.23648 | 27957 ft | 351 kts | 250° |
| 2026-05-06 13:28 | 40.73931 | -1.26667 | 27959 ft | 351 kts | 250° |
| 2026-05-06 13:28 | 40.73084 | -1.29688 | 27954 ft | 352 kts | 250° |
| 2026-05-06 13:29 | 40.72234 | -1.32715 | 27955 ft | 352 kts | 250° |
| 2026-05-06 13:29 | 40.71384 | -1.35732 | 27954 ft | 352 kts | 250° |
| 2026-05-06 13:29 | 40.70533 | -1.38753 | 27956 ft | 351 kts | 250° |
| 2026-05-06 13:29 | 40.69681 | -1.41776 | 27958 ft | 351 kts | 250° |
| 2026-05-06 13:30 | 40.68828 | -1.44802 | 27952 ft | 352 kts | 250° |
| 2026-05-06 13:30 | 40.67980 | -1.47818 | 27950 ft | 352 kts | 250° |
| 2026-05-06 13:30 | 40.67124 | -1.50845 | 27950 ft | 352 kts | 250° |
| 2026-05-06 13:30 | 40.66278 | -1.53826 | 27953 ft | 352 kts | 250° |
| 2026-05-06 13:31 | 40.65415 | -1.56855 | 27735 ft | 347 kts | 250° |
| 2026-05-06 13:31 | 40.64593 | -1.59742 | 27475 ft | 342 kts | 250° |
| 2026-05-06 13:31 | 40.63769 | -1.62646 | 27217 ft | 335 kts | 250° |
| 2026-05-06 13:31 | 40.62972 | -1.65467 | 26862 ft | 329 kts | 250° |
| 2026-05-06 13:32 | 40.62178 | -1.68276 | 26492 ft | 325 kts | 250° |
| 2026-05-06 13:32 | 40.61392 | -1.71050 | 26126 ft | 322 kts | 250° |
| 2026-05-06 13:32 | 40.60612 | -1.73792 | 25764 ft | 318 kts | 250° |
| 2026-05-06 13:32 | 40.59836 | -1.76512 | 25377 ft | 316 kts | 250° |
| 2026-05-06 13:33 | 40.59066 | -1.79206 | 25002 ft | 314 kts | 250° |
| 2026-05-06 13:33 | 40.58298 | -1.81880 | 24611 ft | 312 kts | 250° |
| 2026-05-06 13:33 | 40.57532 | -1.84543 | 24232 ft | 310 kts | 250° |
| 2026-05-06 13:33 | 40.56770 | -1.87188 | 23842 ft | 309 kts | 250° |
| 2026-05-06 13:34 | 40.56009 | -1.89832 | 23437 ft | 309 kts | 250° |
| 2026-05-06 13:34 | 40.55253 | -1.92463 | 23007 ft | 307 kts | 251° |
| 2026-05-06 13:34 | 40.54500 | -1.95076 | 22617 ft | 304 kts | 250° |
| 2026-05-06 13:34 | 40.53753 | -1.97667 | 22228 ft | 302 kts | 251° |
| 2026-05-06 13:35 | 40.53012 | -2.00241 | 21868 ft | 300 kts | 251° |
| 2026-05-06 13:35 | 40.52276 | -2.02795 | 21481 ft | 298 kts | 251° |
| 2026-05-06 13:35 | 40.51542 | -2.05338 | 21106 ft | 297 kts | 250° |
| 2026-05-06 13:35 | 40.50620 | -2.07753 | 20765 ft | 303 kts | 240° |
| 2026-05-06 13:36 | 40.49487 | -2.10169 | 20421 ft | 317 kts | 240° |
| 2026-05-06 13:36 | 40.48325 | -2.12654 | 20076 ft | 320 kts | 240° |
| 2026-05-06 13:36 | 40.47158 | -2.15151 | 19730 ft | 321 kts | 240° |
| 2026-05-06 13:36 | 40.45991 | -2.17646 | 19360 ft | 321 kts | 240° |
| 2026-05-06 13:37 | 40.44840 | -2.20107 | 19004 ft | 319 kts | 240° |
| 2026-05-06 13:37 | 40.43682 | -2.22585 | 18660 ft | 318 kts | 240° |
| 2026-05-06 13:37 | 40.42525 | -2.25057 | 18311 ft | 318 kts | 240° |
| 2026-05-06 13:37 | 40.41367 | -2.27526 | 17925 ft | 317 kts | 240° |
| 2026-05-06 13:38 | 40.40211 | -2.29990 | 17566 ft | 318 kts | 240° |
| 2026-05-06 13:38 | 40.39052 | -2.32459 | 17220 ft | 318 kts | 239° |
| 2026-05-06 13:38 | 40.37889 | -2.34933 | 16867 ft | 318 kts | 239° |
| 2026-05-06 13:38 | 40.36732 | -2.37396 | 16520 ft | 317 kts | 239° |
| 2026-05-06 13:39 | 40.35575 | -2.39851 | 16173 ft | 316 kts | 239° |
| 2026-05-06 13:39 | 40.34418 | -2.42306 | 15826 ft | 316 kts | 239° |
| 2026-05-06 13:39 | 40.33266 | -2.44755 | 15475 ft | 315 kts | 239° |
| 2026-05-06 13:39 | 40.32116 | -2.47199 | 15130 ft | 314 kts | 239° |
| 2026-05-06 13:40 | 40.30969 | -2.49629 | 14776 ft | 314 kts | 239° |
| 2026-05-06 13:40 | 40.29817 | -2.52056 | 14428 ft | 313 kts | 238° |
| 2026-05-06 13:40 | 40.28674 | -2.54460 | 14237 ft | 307 kts | 238° |
| 2026-05-06 13:40 | 40.27565 | -2.56799 | 14119 ft | 298 kts | 238° |
| 2026-05-06 13:41 | 40.26560 | -2.59127 | 13988 ft | 290 kts | 249° |
| 2026-05-06 13:41 | 40.26073 | -2.61638 | 13874 ft | 282 kts | 265° |
| 2026-05-06 13:41 | 40.26043 | -2.64169 | 13728 ft | 275 kts | 270° |
| 2026-05-06 13:41 | 40.26043 | -2.66669 | 13432 ft | 274 kts | 270° |
| 2026-05-06 13:42 | 40.26034 | -2.69164 | 13118 ft | 274 kts | 270° |
| 2026-05-06 13:42 | 40.26022 | -2.71649 | 12850 ft | 271 kts | 270° |
| 2026-05-06 13:42 | 40.26013 | -2.74117 | 12562 ft | 270 kts | 270° |
| 2026-05-06 13:42 | 40.26004 | -2.76586 | 12253 ft | 270 kts | 270° |
| 2026-05-06 13:43 | 40.25994 | -2.79026 | 11927 ft | 270 kts | 270° |
| 2026-05-06 13:43 | 40.25984 | -2.81463 | 11671 ft | 267 kts | 270° |
| 2026-05-06 13:43 | 40.25974 | -2.83927 | 11340 ft | 282 kts | 270° |
| 2026-05-06 13:43 | 40.25964 | -2.86549 | 11034 ft | 291 kts | 270° |
| 2026-05-06 13:44 | 40.25955 | -2.89177 | 10743 ft | 292 kts | 270° |
| 2026-05-06 13:44 | 40.25944 | -2.91794 | 10458 ft | 291 kts | 269° |
| 2026-05-06 13:44 | 40.25931 | -2.94437 | 10169 ft | 290 kts | 269° |
| 2026-05-06 13:44 | 40.25917 | -2.97070 | 9874 ft | 288 kts | 269° |
| 2026-05-06 13:45 | 40.25901 | -2.99687 | 9563 ft | 287 kts | 269° |
| 2026-05-06 13:45 | 40.25866 | -3.04878 | 8987 ft | 284 kts | 269° |
| 2026-05-06 13:45 | 40.25849 | -3.07462 | 8704 ft | 283 kts | 269° |
| 2026-05-06 13:46 | 40.25834 | -3.10032 | 8423 ft | 282 kts | 269° |
| 2026-05-06 13:46 | 40.25825 | -3.12585 | 8140 ft | 280 kts | 272° |
| 2026-05-06 13:46 | 40.26168 | -3.15056 | 7959 ft | 271 kts | 288° |
| 2026-05-06 13:46 | 40.26738 | -3.17351 | 7829 ft | 260 kts | 288° |
| 2026-05-06 13:47 | 40.27282 | -3.19567 | 7653 ft | 252 kts | 288° |
| 2026-05-06 13:47 | 40.27808 | -3.21733 | 7388 ft | 250 kts | 288° |
| 2026-05-06 13:47 | 40.28318 | -3.23844 | 7081 ft | 249 kts | 287° |
| 2026-05-06 13:47 | 40.28839 | -3.26011 | 6773 ft | 247 kts | 287° |
| 2026-05-06 13:48 | 40.29353 | -3.28153 | 6493 ft | 245 kts | 287° |
| 2026-05-06 13:48 | 40.29864 | -3.30283 | 6135 ft | 246 kts | 288° |
| 2026-05-06 13:48 | 40.30203 | -3.31693 | 5971 ft | 243 kts | 288° |
| 2026-05-06 13:48 | 40.30709 | -3.33789 | 5731 ft | 239 kts | 288° |
| 2026-05-06 13:49 | 40.31199 | -3.35818 | 5658 ft | 228 kts | 288° |
| 2026-05-06 13:49 | 40.32143 | -3.38136 | 5544 ft | 215 kts | 313° |
| 2026-05-06 13:49 | 40.32885 | -3.38991 | 5451 ft | 207 kts | 322° |
| 2026-05-06 13:49 | 40.34004 | -3.40116 | 5204 ft | 197 kts | 322° |
| 2026-05-06 13:50 | 40.35049 | -3.41162 | 4981 ft | 182 kts | 322° |
| 2026-05-06 13:50 | 40.36020 | -3.42141 | 4709 ft | 172 kts | 322° |
| 2026-05-06 13:50 | 40.36943 | -3.43077 | 4450 ft | 164 kts | 322° |
| 2026-05-06 13:50 | 40.37825 | -3.43974 | 4260 ft | 158 kts | 322° |
| 2026-05-06 13:51 | 40.38700 | -3.44838 | 4067 ft | 156 kts | 322° |
| 2026-05-06 13:51 | 40.39558 | -3.45706 | 3870 ft | 155 kts | 321° |
| 2026-05-06 13:51 | 40.40408 | -3.46573 | 3667 ft | 155 kts | 322° |
| 2026-05-06 13:51 | 40.41259 | -3.47424 | 3476 ft | 155 kts | 321° |
| 2026-05-06 13:52 | 40.42103 | -3.48297 | 3265 ft | 154 kts | 321° |
| 2026-05-06 13:52 | 40.42950 | -3.49146 | 3038 ft | 153 kts | 322° |
| 2026-05-06 13:52 | 40.43793 | -3.49998 | 2834 ft | 153 kts | 322° |
| 2026-05-06 13:52 | 40.44634 | -3.50848 | 2601 ft | 154 kts | 321° |
| 2026-05-06 13:53 | 40.45474 | -3.51697 | 2394 ft | 155 kts | 321° |
| 2026-05-06 13:53 | 40.46329 | -3.52560 | 2210 ft | 155 kts | 319° |
| 2026-05-06 13:53 | 40.47184 | -3.53440 | 2045 ft | 156 kts | 320° |
| 2026-05-06 13:53 | 40.48001 | -3.54277 | 1980 ft | 138 kts | 322° |
| 2026-05-06 13:54 | 40.48628 | -3.54908 | 1981 ft | 89 kts | 323° |
| 2026-05-06 13:54 | 40.48976 | -3.55263 | 1981 ft | 30 kts | 322° |
| 2026-05-06 13:54 | 40.49143 | -3.55432 | 1980 ft | 27 kts | 321° |
| 2026-05-06 13:54 | 40.49216 | -3.55615 | 1982 ft | 24 kts | 289° |
| 2026-05-06 13:55 | 40.49266 | -3.55772 | 1981 ft | 16 kts | 293° |
| 2026-05-06 13:55 | 40.49281 | -3.55817 | 1980 ft | 1 kts | 293° |
| 2026-05-06 13:55 | 40.49282 | -3.55821 | 1980 ft | 0 kts | 293° |
| 2026-05-06 13:55 | 40.49288 | -3.55838 | 1983 ft | 9 kts | 293° |
| 2026-05-06 13:56 | 40.49324 | -3.55952 | 1980 ft | 16 kts | 285° |
| 2026-05-06 13:56 | 40.49302 | -3.56044 | 1981 ft | 13 kts | 264° |
| 2026-05-06 13:56 | 40.49262 | -3.56145 | 1980 ft | 15 kts | 189° |
| 2026-05-06 13:56 | 40.49148 | -3.56144 | 1980 ft | 18 kts | 180° |
| 2026-05-06 13:57 | 40.49027 | -3.56143 | 1982 ft | 16 kts | 180° |
| 2026-05-06 13:57 | 40.48902 | -3.56143 | 1980 ft | 20 kts | 180° |
| 2026-05-06 13:57 | 40.48778 | -3.56167 | 1984 ft | 17 kts | 236° |
| 2026-05-06 13:57 | 40.48769 | -3.56334 | 1982 ft | 20 kts | 269° |
| 2026-05-06 13:58 | 40.48768 | -3.56532 | 1982 ft | 23 kts | 269° |
| 2026-05-06 13:58 | 40.48766 | -3.56750 | 1982 ft | 24 kts | 272° |
| 2026-05-06 13:58 | 40.48767 | -3.56979 | 1980 ft | 26 kts | 269° |
| 2026-05-06 13:58 | 40.48766 | -3.57220 | 1982 ft | 27 kts | 269° |
| 2026-05-06 13:59 | 40.48764 | -3.57471 | 1980 ft | 28 kts | 269° |
| 2026-05-06 13:59 | 40.48763 | -3.57729 | 1980 ft | 29 kts | 270° |
| 2026-05-06 13:59 | 40.48762 | -3.57897 | 1980 ft | 13 kts | 262° |
| 2026-05-06 13:59 | 40.48681 | -3.57936 | 1980 ft | 14 kts | 179° |
| 2026-05-06 14:00 | 40.48600 | -3.57977 | 1982 ft | 14 kts | 258° |
| 2026-05-06 14:00 | 40.48600 | -3.58110 | 1982 ft | 15 kts | 269° |
| 2026-05-06 14:00 | 40.48599 | -3.58258 | 1981 ft | 17 kts | 269° |
| 2026-05-06 14:00 | 40.48598 | -3.58420 | 1980 ft | 18 kts | 268° |
| 2026-05-06 14:01 | 40.48598 | -3.58584 | 1982 ft | 18 kts | 270° |
| 2026-05-06 14:01 | 40.48597 | -3.58751 | 1980 ft | 18 kts | 270° |
| 2026-05-06 14:01 | 40.48676 | -3.58822 | 1980 ft | 15 kts | 359° |
| 2026-05-06 14:01 | 40.48756 | -3.58860 | 1980 ft | 12 kts | 289° |
| 2026-05-06 14:02 | 40.48817 | -3.58904 | 1980 ft | 10 kts | 360° |
| 2026-05-06 14:02 | 40.48905 | -3.58901 | 1980 ft | 15 kts | 0° |
| 2026-05-06 14:02 | 40.49024 | -3.58903 | 1980 ft | 19 kts | 359° |
| 2026-05-06 14:02 | 40.49159 | -3.58905 | 1980 ft | 19 kts | 3° |
| 2026-05-06 14:03 | 40.49226 | -3.58915 | 1984 ft | 7 kts | 308° |
| 2026-05-06 14:03 | 40.49230 | -3.58970 | 1980 ft | 6 kts | 270° |
| 2026-05-06 14:03 | 40.49230 | -3.58988 | 1980 ft | 0 kts | 270° |